sensor_id;sensor_type;location;lat;lon;timestamp;pressure;altitude;pressure_sealevel;temperature;humidity
72802;BME280;61891;55.818;37.084;2022-12-13T00:01:47;98296.03;;;2.21;78.12
72802;BME280;61891;55.818;37.084;2022-12-13T00:04:14;98380.16;;;2.73;78.15
72802;BME280;61891;55.818;37.084;2022-12-13T00:06:40;98356.38;;;2.56;78.05
72802;BME280;61891;55.818;37.084;2022-12-13T00:09:07;98384.69;;;2.71;78.16
72802;BME280;61891;55.818;37.084;2022-12-13T00:11:32;98391.84;;;2.78;77.91
72802;BME280;61891;55.818;37.084;2022-12-13T00:13:58;98402.84;;;2.82;78.04
72802;BME280;61891;55.818;37.084;2022-12-13T00:16:25;98400.66;;;2.77;77.59
72802;BME280;61891;55.818;37.084;2022-12-13T00:18:53;98390.50;;;2.65;77.55
72802;BME280;61891;55.818;37.084;2022-12-13T00:21:22;98387.59;;;2.68;77.84
72802;BME280;61891;55.818;37.084;2022-12-13T00:23:48;98384.59;;;2.63;78.05
72802;BME280;61891;55.818;37.084;2022-12-13T00:26:17;98406.72;;;2.78;77.90
72802;BME280;61891;55.818;37.084;2022-12-13T00:28:43;98403.41;;;2.76;77.84
72802;BME280;61891;55.818;37.084;2022-12-13T00:31:09;98400.13;;;2.74;77.96
72802;BME280;61891;55.818;37.084;2022-12-13T00:33:37;98392.16;;;2.56;77.63
72802;BME280;61891;55.818;37.084;2022-12-13T00:36:04;98410.72;;;2.72;77.92
72802;BME280;61891;55.818;37.084;2022-12-13T00:38:32;98386.78;;;2.57;78.10
72802;BME280;61891;55.818;37.084;2022-12-13T00:40:58;98412.50;;;2.72;77.86
72802;BME280;61891;55.818;37.084;2022-12-13T00:43:23;98417.34;;;2.67;77.57
72802;BME280;61891;55.818;37.084;2022-12-13T00:45:49;98420.25;;;2.64;77.41
72802;BME280;61891;55.818;37.084;2022-12-13T00:48:15;98393.16;;;2.45;77.89
72802;BME280;61891;55.818;37.084;2022-12-13T00:50:40;98404.00;;;2.60;77.67
72802;BME280;61891;55.818;37.084;2022-12-13T00:53:06;98404.81;;;2.61;77.86
72802;BME280;61891;55.818;37.084;2022-12-13T00:55:32;98390.38;;;2.47;77.81
72802;BME280;61891;55.818;37.084;2022-12-13T00:57:58;98384.06;;;2.49;77.77
72802;BME280;61891;55.818;37.084;2022-12-13T01:00:23;98411.44;;;2.65;77.82
72802;BME280;61891;55.818;37.084;2022-12-13T01:02:52;98358.34;;;2.35;77.78
72802;BME280;61891;55.818;37.084;2022-12-13T01:05:18;98384.47;;;2.54;77.56
72802;BME280;61891;55.818;37.084;2022-12-13T01:07:44;98402.06;;;2.62;77.64
72802;BME280;61891;55.818;37.084;2022-12-13T01:10:10;98405.78;;;2.59;77.56
72802;BME280;61891;55.818;37.084;2022-12-13T01:12:38;98407.16;;;2.64;77.82
72802;BME280;61891;55.818;37.084;2022-12-13T01:15:05;98401.66;;;2.67;77.86
72802;BME280;61891;55.818;37.084;2022-12-13T01:17:33;98380.06;;;2.55;77.59
72802;BME280;61891;55.818;37.084;2022-12-13T01:20:02;98383.91;;;2.61;77.54
72802;BME280;61891;55.818;37.084;2022-12-13T01:22:29;98400.41;;;2.71;77.57
72802;BME280;61891;55.818;37.084;2022-12-13T01:24:55;98384.19;;;2.57;77.65
72802;BME280;61891;55.818;37.084;2022-12-13T01:27:21;98397.50;;;2.74;77.44
72802;BME280;61891;55.818;37.084;2022-12-13T01:29:46;98398.19;;;2.76;77.93
72802;BME280;61891;55.818;37.084;2022-12-13T01:32:12;98402.75;;;2.74;77.68
72802;BME280;61891;55.818;37.084;2022-12-13T01:34:38;98386.91;;;2.66;77.39
72802;BME280;61891;55.818;37.084;2022-12-13T01:37:03;98385.25;;;2.65;77.53
72802;BME280;61891;55.818;37.084;2022-12-13T01:39:29;98387.88;;;2.65;77.58
72802;BME280;61891;55.818;37.084;2022-12-13T01:41:56;98405.75;;;2.79;77.64
72802;BME280;61891;55.818;37.084;2022-12-13T01:47:35;98406.16;;;2.84;77.64
72802;BME280;61891;55.818;37.084;2022-12-13T01:50:26;98385.25;;;2.74;77.49
72802;BME280;61891;55.818;37.084;2022-12-13T01:52:54;98410.44;;;2.85;77.44
72802;BME280;61891;55.818;37.084;2022-12-13T01:55:24;98414.84;;;2.84;77.48
72802;BME280;61891;55.818;37.084;2022-12-13T01:57:54;98330.84;;;2.21;77.24
72802;BME280;61891;55.818;37.084;2022-12-13T02:00:24;98327.53;;;2.19;77.14
72802;BME280;61891;55.818;37.084;2022-12-13T02:02:52;98403.31;;;2.68;77.26
72802;BME280;61891;55.818;37.084;2022-12-13T02:05:32;98418.00;;;2.78;77.55
72802;BME280;61891;55.818;37.084;2022-12-13T02:07:59;98424.75;;;2.81;77.50
72802;BME280;61891;55.818;37.084;2022-12-13T02:10:26;98413.31;;;2.82;77.21
72802;BME280;61891;55.818;37.084;2022-12-13T02:12:52;98399.56;;;2.70;77.33
72802;BME280;61891;55.818;37.084;2022-12-13T02:15:18;98418.28;;;2.85;77.32
72802;BME280;61891;55.818;37.084;2022-12-13T02:23:23;98406.72;;;2.78;77.11
72802;BME280;61891;55.818;37.084;2022-12-13T02:32:14;98382.50;;;2.66;77.05
72802;BME280;61891;55.818;37.084;2022-12-13T02:37:27;98370.13;;;2.58;76.96
72802;BME280;61891;55.818;37.084;2022-12-13T02:40:25;98419.63;;;2.89;77.09
72802;BME280;61891;55.818;37.084;2022-12-13T02:43:17;98409.59;;;2.84;77.29
72802;BME280;61891;55.818;37.084;2022-12-13T02:45:52;98411.50;;;2.92;77.11
72802;BME280;61891;55.818;37.084;2022-12-13T02:48:23;98382.75;;;2.82;77.40
72802;BME280;61891;55.818;37.084;2022-12-13T02:50:51;98374.25;;;2.71;77.71
72802;BME280;61891;55.818;37.084;2022-12-13T02:53:19;98406.41;;;2.90;77.22
72802;BME280;61891;55.818;37.084;2022-12-13T02:55:46;98399.66;;;2.88;77.38
72802;BME280;61891;55.818;37.084;2022-12-13T02:58:13;98414.38;;;2.99;77.40
72802;BME280;61891;55.818;37.084;2022-12-13T03:03:29;98421.81;;;3.03;76.96
72802;BME280;61891;55.818;37.084;2022-12-13T03:15:19;98361.59;;;2.56;76.85
72802;BME280;61891;55.818;37.084;2022-12-13T03:18:08;98380.31;;;2.62;77.01
72802;BME280;61891;55.818;37.084;2022-12-13T03:20:51;98418.28;;;2.85;77.01
72802;BME280;61891;55.818;37.084;2022-12-13T03:23:18;98418.81;;;2.88;77.19
72802;BME280;61891;55.818;37.084;2022-12-13T03:25:46;98428.19;;;2.91;77.16
72802;BME280;61891;55.818;37.084;2022-12-13T03:28:13;98389.66;;;2.74;77.37
72802;BME280;61891;55.818;37.084;2022-12-13T03:30:39;98408.34;;;2.88;77.01
72802;BME280;61891;55.818;37.084;2022-12-13T03:33:05;98421.69;;;2.95;77.21
72802;BME280;61891;55.818;37.084;2022-12-13T03:35:31;98370.00;;;2.60;77.21
72802;BME280;61891;55.818;37.084;2022-12-13T03:37:57;98384.41;;;2.74;77.19
72802;BME280;61891;55.818;37.084;2022-12-13T03:40:24;98425.41;;;2.92;77.02
72802;BME280;61891;55.818;37.084;2022-12-13T03:42:50;98422.66;;;2.94;77.05
72802;BME280;61891;55.818;37.084;2022-12-13T03:45:16;98391.59;;;2.72;77.06
72802;BME280;61891;55.818;37.084;2022-12-13T03:47:43;98393.13;;;2.65;77.17
72802;BME280;61891;55.818;37.084;2022-12-13T03:50:08;98426.94;;;2.85;77.36
72802;BME280;61891;55.818;37.084;2022-12-13T03:52:34;98437.28;;;2.87;77.29
72802;BME280;61891;55.818;37.084;2022-12-13T03:55:00;98427.91;;;2.84;77.46
72802;BME280;61891;55.818;37.084;2022-12-13T03:57:25;98428.75;;;2.85;77.35
72802;BME280;61891;55.818;37.084;2022-12-13T03:59:51;98406.31;;;2.73;77.46
72802;BME280;61891;55.818;37.084;2022-12-13T04:02:19;98415.25;;;2.80;77.35
72802;BME280;61891;55.818;37.084;2022-12-13T04:04:45;98428.47;;;2.88;77.49
72802;BME280;61891;55.818;37.084;2022-12-13T04:07:10;98424.06;;;2.88;77.57
72802;BME280;61891;55.818;37.084;2022-12-13T04:09:36;98429.44;;;2.87;77.25
72802;BME280;61891;55.818;37.084;2022-12-13T04:12:02;98414.97;;;2.83;77.22
72802;BME280;61891;55.818;37.084;2022-12-13T04:14:46;98427.09;;;2.84;77.63
72802;BME280;61891;55.818;37.084;2022-12-13T04:17:12;98426.81;;;2.87;77.46
72802;BME280;61891;55.818;37.084;2022-12-13T04:19:37;98390.34;;;2.66;77.35
72802;BME280;61891;55.818;37.084;2022-12-13T04:22:03;98432.31;;;2.84;77.51
72802;BME280;61891;55.818;37.084;2022-12-13T04:24:29;98415.00;;;2.73;77.29
72802;BME280;61891;55.818;37.084;2022-12-13T04:26:54;98411.16;;;2.68;77.59
72802;BME280;61891;55.818;37.084;2022-12-13T04:29:20;98439.78;;;2.79;77.57
72802;BME280;61891;55.818;37.084;2022-12-13T04:31:46;98442.25;;;2.80;77.72
72802;BME280;61891;55.818;37.084;2022-12-13T04:34:11;98425.31;;;2.75;77.67
72802;BME280;61891;55.818;37.084;2022-12-13T04:36:37;98418.31;;;2.66;77.59
72802;BME280;61891;55.818;37.084;2022-12-13T04:39:04;98442.25;;;2.80;77.73
72802;BME280;61891;55.818;37.084;2022-12-13T04:41:35;98423.66;;;2.74;77.87
72802;BME280;61891;55.818;37.084;2022-12-13T04:44:02;98446.50;;;2.81;77.71
72802;BME280;61891;55.818;37.084;2022-12-13T04:46:28;98437.00;;;2.80;77.73
72802;BME280;61891;55.818;37.084;2022-12-13T04:48:54;98439.22;;;2.75;77.45
72802;BME280;61891;55.818;37.084;2022-12-13T04:51:20;98436.59;;;2.75;77.42
72802;BME280;61891;55.818;37.084;2022-12-13T04:53:45;98430.97;;;2.70;77.53
72802;BME280;61891;55.818;37.084;2022-12-13T04:56:11;98406.63;;;2.50;77.64
72802;BME280;61891;55.818;37.084;2022-12-13T04:58:37;98436.06;;;2.72;77.64
72802;BME280;61891;55.818;37.084;2022-12-13T05:01:09;98444.47;;;2.75;77.79
72802;BME280;61891;55.818;37.084;2022-12-13T05:03:36;98440.88;;;2.67;77.64
72802;BME280;61891;55.818;37.084;2022-12-13T05:06:06;98430.16;;;2.60;77.56
72802;BME280;61891;55.818;37.084;2022-12-13T05:08:32;98457.41;;;2.77;77.57
72802;BME280;61891;55.818;37.084;2022-12-13T05:10:58;98459.75;;;2.80;77.48
72802;BME280;61891;55.818;37.084;2022-12-13T05:13:24;98451.59;;;2.83;77.86
72802;BME280;61891;55.818;37.084;2022-12-13T05:15:59;98445.28;;;2.76;77.49
72802;BME280;61891;55.818;37.084;2022-12-13T05:18:25;98460.72;;;2.79;77.19
72802;BME280;61891;55.818;37.084;2022-12-13T05:20:51;98408.28;;;2.42;77.46
72802;BME280;61891;55.818;37.084;2022-12-13T05:23:21;98452.19;;;2.57;77.38
72802;BME280;61891;55.818;37.084;2022-12-13T05:25:47;98463.19;;;2.71;77.49
72802;BME280;61891;55.818;37.084;2022-12-13T05:28:13;98433.06;;;2.47;77.59
72802;BME280;61891;55.818;37.084;2022-12-13T05:30:41;98457.69;;;2.64;77.60
72802;BME280;61891;55.818;37.084;2022-12-13T05:33:07;98460.16;;;2.66;77.67
72802;BME280;61891;55.818;37.084;2022-12-13T05:35:33;98473.78;;;2.69;77.66
72802;BME280;61891;55.818;37.084;2022-12-13T05:37:59;98479.84;;;2.70;77.73
72802;BME280;61891;55.818;37.084;2022-12-13T05:40:27;98462.66;;;2.57;77.63
72802;BME280;61891;55.818;37.084;2022-12-13T05:42:53;98464.59;;;2.55;77.83
72802;BME280;61891;55.818;37.084;2022-12-13T05:45:19;98465.41;;;2.56;77.71
72802;BME280;61891;55.818;37.084;2022-12-13T05:47:45;98455.34;;;2.51;77.63
72802;BME280;61891;55.818;37.084;2022-12-13T05:50:12;98479.31;;;2.66;77.85
72802;BME280;61891;55.818;37.084;2022-12-13T05:52:38;98477.53;;;2.67;77.75
72802;BME280;61891;55.818;37.084;2022-12-13T05:55:04;98474.75;;;2.68;78.06
72802;BME280;61891;55.818;37.084;2022-12-13T05:57:30;98471.47;;;2.66;78.15
72802;BME280;61891;55.818;37.084;2022-12-13T05:59:56;98467.88;;;2.67;77.75
72802;BME280;61891;55.818;37.084;2022-12-13T06:02:22;98466.09;;;2.68;77.89
72802;BME280;61891;55.818;37.084;2022-12-13T06:04:48;98483.72;;;2.75;77.83
72802;BME280;61891;55.818;37.084;2022-12-13T06:07:14;98458.78;;;2.62;77.96
72802;BME280;61891;55.818;37.084;2022-12-13T06:09:40;98485.22;;;2.78;77.97
72802;BME280;61891;55.818;37.084;2022-12-13T06:12:06;98480.53;;;2.81;78.08
72802;BME280;61891;55.818;37.084;2022-12-13T06:14:32;98466.63;;;2.81;78.09
72802;BME280;61891;55.818;37.084;2022-12-13T06:16:57;98440.63;;;2.50;77.98
72802;BME280;61891;55.818;37.084;2022-12-13T06:19:24;98483.00;;;2.83;77.41
72802;BME280;61891;55.818;37.084;2022-12-13T06:21:52;98492.91;;;2.89;77.83
72802;BME280;61891;55.818;37.084;2022-12-13T06:24:20;98498.00;;;2.90;77.61
72802;BME280;61891;55.818;37.084;2022-12-13T06:26:47;98489.63;;;2.87;77.87
72802;BME280;61891;55.818;37.084;2022-12-13T06:29:14;98486.59;;;2.82;77.93
72802;BME280;61891;55.818;37.084;2022-12-13T06:31:40;98488.91;;;2.95;77.92
72802;BME280;61891;55.818;37.084;2022-12-13T06:34:05;98472.94;;;2.88;77.52
72802;BME280;61891;55.818;37.084;2022-12-13T06:36:31;98494.84;;;2.97;77.63
72802;BME280;61891;55.818;37.084;2022-12-13T06:39:04;98505.84;;;3.00;77.68
72802;BME280;61891;55.818;37.084;2022-12-13T06:41:29;98507.38;;;3.03;77.59
72802;BME280;61891;55.818;37.084;2022-12-13T06:43:55;98471.44;;;2.76;77.61
72802;BME280;61891;55.818;37.084;2022-12-13T06:46:21;98506.13;;;2.97;77.68
72802;BME280;61891;55.818;37.084;2022-12-13T06:48:48;98510.00;;;2.93;77.61
72802;BME280;61891;55.818;37.084;2022-12-13T06:51:14;98531.47;;;3.06;77.68
72802;BME280;61891;55.818;37.084;2022-12-13T06:53:40;98533.13;;;3.07;77.43
72802;BME280;61891;55.818;37.084;2022-12-13T06:56:09;98546.22;;;3.07;77.42
72802;BME280;61891;55.818;37.084;2022-12-13T06:58:36;98552.16;;;3.00;77.00
72802;BME280;61891;55.818;37.084;2022-12-13T07:01:04;98505.88;;;2.62;76.91
72802;BME280;61891;55.818;37.084;2022-12-13T07:03:31;98556.28;;;2.92;76.63
72802;BME280;61891;55.818;37.084;2022-12-13T07:05:58;98543.47;;;2.89;76.94
72802;BME280;61891;55.818;37.084;2022-12-13T07:08:24;98552.97;;;2.90;77.19
72802;BME280;61891;55.818;37.084;2022-12-13T07:10:51;98551.31;;;2.89;77.03
72802;BME280;61891;55.818;37.084;2022-12-13T07:13:18;98563.44;;;2.90;77.20
72802;BME280;61891;55.818;37.084;2022-12-13T07:15:45;98562.91;;;2.87;76.97
72802;BME280;61891;55.818;37.084;2022-12-13T07:18:11;98575.97;;;2.97;76.99
72802;BME280;61891;55.818;37.084;2022-12-13T07:20:39;98580.38;;;2.96;77.11
72802;BME280;61891;55.818;37.084;2022-12-13T07:23:05;98588.38;;;2.95;77.03
72802;BME280;61891;55.818;37.084;2022-12-13T07:25:31;98582.19;;;2.96;76.93
72802;BME280;61891;55.818;37.084;2022-12-13T07:27:59;98590.03;;;2.86;76.66
72802;BME280;61891;55.818;37.084;2022-12-13T07:30:25;98584.66;;;2.78;76.46
72802;BME280;61891;55.818;37.084;2022-12-13T07:32:50;98590.44;;;2.81;76.65
72802;BME280;61891;55.818;37.084;2022-12-13T07:35:16;98549.94;;;2.56;76.72
72802;BME280;61891;55.818;37.084;2022-12-13T07:37:42;98566.75;;;2.64;76.95
72802;BME280;61891;55.818;37.084;2022-12-13T07:40:08;98603.13;;;2.86;76.91
72802;BME280;61891;55.818;37.084;2022-12-13T07:42:34;98620.75;;;2.84;76.86
72802;BME280;61891;55.818;37.084;2022-12-13T07:45:00;98619.09;;;2.83;76.92
72802;BME280;61891;55.818;37.084;2022-12-13T07:47:29;98606.13;;;2.72;76.44
72802;BME280;61891;55.818;37.084;2022-12-13T07:49:55;98607.94;;;2.71;76.80
72802;BME280;61891;55.818;37.084;2022-12-13T07:52:21;98612.34;;;2.71;76.72
72802;BME280;61891;55.818;37.084;2022-12-13T07:54:47;98620.44;;;2.68;76.76
72802;BME280;61891;55.818;37.084;2022-12-13T07:57:12;98616.19;;;2.67;76.51
72802;BME280;61891;55.818;37.084;2022-12-13T07:59:38;98618.78;;;2.67;76.63
72802;BME280;61891;55.818;37.084;2022-12-13T08:02:05;98600.06;;;2.62;76.69
72802;BME280;61891;55.818;37.084;2022-12-13T08:04:31;98623.75;;;2.70;76.77
72802;BME280;61891;55.818;37.084;2022-12-13T08:06:56;98609.97;;;2.68;76.80
72802;BME280;61891;55.818;37.084;2022-12-13T08:09:22;98619.63;;;2.67;76.67
72802;BME280;61891;55.818;37.084;2022-12-13T08:11:48;98599.22;;;2.51;76.65
72802;BME280;61891;55.818;37.084;2022-12-13T08:14:13;98627.59;;;2.66;76.12
72802;BME280;61891;55.818;37.084;2022-12-13T08:16:39;98639.72;;;2.57;76.16
72802;BME280;61891;55.818;37.084;2022-12-13T08:19:05;98635.84;;;2.51;76.14
72802;BME280;61891;55.818;37.084;2022-12-13T08:21:35;98646.56;;;2.48;75.86
72802;BME280;61891;55.818;37.084;2022-12-13T08:24:01;98617.63;;;2.31;76.06
72802;BME280;61891;55.818;37.084;2022-12-13T08:26:27;98631.00;;;2.47;75.73
72802;BME280;61891;55.818;37.084;2022-12-13T08:28:52;98626.19;;;2.42;75.84
72802;BME280;61891;55.818;37.084;2022-12-13T08:31:18;98642.28;;;2.47;76.04
72802;BME280;61891;55.818;37.084;2022-12-13T08:33:44;98632.75;;;2.37;75.90
72802;BME280;61891;55.818;37.084;2022-12-13T08:36:13;98622.81;;;2.21;75.78
72802;BME280;61891;55.818;37.084;2022-12-13T08:38:45;98646.63;;;2.28;76.01
72802;BME280;61891;55.818;37.084;2022-12-13T08:41:12;98655.84;;;2.22;76.01
72802;BME280;61891;55.818;37.084;2022-12-13T08:43:38;98648.53;;;2.16;76.07
72802;BME280;61891;55.818;37.084;2022-12-13T08:46:04;98656.53;;;2.24;76.54
72802;BME280;61891;55.818;37.084;2022-12-13T08:48:30;98646.22;;;2.22;76.28
72802;BME280;61891;55.818;37.084;2022-12-13T08:51:06;98640.69;;;2.16;75.97
72802;BME280;61891;55.818;37.084;2022-12-13T08:53:32;98670.56;;;2.23;75.86
72802;BME280;61891;55.818;37.084;2022-12-13T08:56:03;98658.00;;;2.17;75.76
72802;BME280;61891;55.818;37.084;2022-12-13T08:58:30;98656.06;;;2.09;75.82
72802;BME280;61891;55.818;37.084;2022-12-13T09:00:56;98672.13;;;2.05;75.94
72802;BME280;61891;55.818;37.084;2022-12-13T09:03:22;98644.88;;;1.77;76.05
72802;BME280;61891;55.818;37.084;2022-12-13T09:05:48;98686.50;;;1.89;76.24
72802;BME280;61891;55.818;37.084;2022-12-13T09:08:13;98683.38;;;1.75;76.04
72802;BME280;61891;55.818;37.084;2022-12-13T09:10:40;98692.31;;;1.72;76.00
72802;BME280;61891;55.818;37.084;2022-12-13T09:13:06;98699.31;;;1.72;75.89
72802;BME280;61891;55.818;37.084;2022-12-13T09:15:31;98712.75;;;1.67;76.03
72802;BME280;61891;55.818;37.084;2022-12-13T09:17:57;98675.59;;;1.43;76.19
72802;BME280;61891;55.818;37.084;2022-12-13T09:20:23;98714.78;;;1.64;76.10
72802;BME280;61891;55.818;37.084;2022-12-13T09:22:49;98731.41;;;1.63;75.73
72802;BME280;61891;55.818;37.084;2022-12-13T09:25:16;98704.72;;;1.59;75.76
72802;BME280;61891;55.818;37.084;2022-12-13T09:27:42;98704.03;;;1.57;76.03
72802;BME280;61891;55.818;37.084;2022-12-13T09:30:09;98685.59;;;1.38;75.62
72802;BME280;61891;55.818;37.084;2022-12-13T09:32:39;98710.69;;;1.50;75.83
72802;BME280;61891;55.818;37.084;2022-12-13T09:35:06;98710.56;;;1.51;75.61
72802;BME280;61891;55.818;37.084;2022-12-13T09:37:31;98702.66;;;1.42;75.22
72802;BME280;61891;55.818;37.084;2022-12-13T09:39:57;98713.34;;;1.39;75.20
72802;BME280;61891;55.818;37.084;2022-12-13T09:42:26;98735.19;;;1.38;75.25
72802;BME280;61891;55.818;37.084;2022-12-13T09:44:59;98712.72;;;1.14;75.42
72802;BME280;61891;55.818;37.084;2022-12-13T09:47:30;98746.84;;;1.34;75.37
72802;BME280;61891;55.818;37.084;2022-12-13T09:49:58;98738.56;;;1.28;75.44
72802;BME280;61891;55.818;37.084;2022-12-13T09:52:27;98748.16;;;1.28;75.54
72802;BME280;61891;55.818;37.084;2022-12-13T09:54:56;98743.66;;;1.30;75.57
72802;BME280;61891;55.818;37.084;2022-12-13T09:57:29;98700.66;;;1.02;75.21
72802;BME280;61891;55.818;37.084;2022-12-13T09:59:55;98730.50;;;1.20;74.75
72802;BME280;61891;55.818;37.084;2022-12-13T10:02:29;98737.16;;;1.24;74.93
72802;BME280;61891;55.818;37.084;2022-12-13T10:05:13;98753.06;;;1.21;74.81
72802;BME280;61891;55.818;37.084;2022-12-13T10:07:40;98717.97;;;1.14;74.74
72802;BME280;61891;55.818;37.084;2022-12-13T10:10:10;98732.16;;;1.21;74.60
72802;BME280;61891;55.818;37.084;2022-12-13T10:12:37;98735.25;;;1.26;74.56
72802;BME280;61891;55.818;37.084;2022-12-13T10:15:04;98740.00;;;1.21;74.54
72802;BME280;61891;55.818;37.084;2022-12-13T10:17:37;98730.38;;;1.22;74.54
72802;BME280;61891;55.818;37.084;2022-12-13T10:20:04;98733.00;;;1.22;74.56
72802;BME280;61891;55.818;37.084;2022-12-13T10:22:30;98736.56;;;1.21;74.34
72802;BME280;61891;55.818;37.084;2022-12-13T10:25:04;98734.28;;;1.27;74.43
72802;BME280;61891;55.818;37.084;2022-12-13T10:27:42;98720.81;;;1.11;73.96
72802;BME280;61891;55.818;37.084;2022-12-13T10:30:17;98738.56;;;1.28;73.96
72802;BME280;61891;55.818;37.084;2022-12-13T10:33:00;98758.72;;;1.26;73.77
72802;BME280;61891;55.818;37.084;2022-12-13T10:35:29;98753.28;;;1.18;73.62
72802;BME280;61891;55.818;37.084;2022-12-13T10:37:56;98764.56;;;1.19;73.67
72802;BME280;61891;55.818;37.084;2022-12-13T10:43:22;98761.13;;;1.18;74.00
72802;BME280;61891;55.818;37.084;2022-12-13T10:46:01;98772.84;;;1.24;74.16
72802;BME280;61891;55.818;37.084;2022-12-13T10:48:34;98763.25;;;1.24;73.93
72802;BME280;61891;55.818;37.084;2022-12-13T10:51:02;98773.44;;;1.27;73.82
72802;BME280;61891;55.818;37.084;2022-12-13T10:53:31;98791.34;;;1.32;73.82
72802;BME280;61891;55.818;37.084;2022-12-13T10:55:58;98734.34;;;1.05;73.49
72802;BME280;61891;55.818;37.084;2022-12-13T10:58:34;98767.03;;;1.32;73.63
72802;BME280;61891;55.818;37.084;2022-12-13T11:06:39;98772.63;;;1.27;73.28
72802;BME280;61891;55.818;37.084;2022-12-13T11:09:24;98792.19;;;1.33;72.93
72802;BME280;61891;55.818;37.084;2022-12-13T11:11:51;98796.44;;;1.34;72.91
72802;BME280;61891;55.818;37.084;2022-12-13T11:14:20;98777.63;;;1.19;72.72
72802;BME280;61891;55.818;37.084;2022-12-13T11:16:54;98778.78;;;1.26;72.91
72802;BME280;61891;55.818;37.084;2022-12-13T11:19:37;98807.34;;;1.39;73.05
72802;BME280;61891;55.818;37.084;2022-12-13T11:22:06;98770.75;;;1.18;72.84
72802;BME280;61891;55.818;37.084;2022-12-13T11:24:36;98798.94;;;1.35;72.61
72802;BME280;61891;55.818;37.084;2022-12-13T11:35:15;98813.09;;;1.21;73.16
72802;BME280;61891;55.818;37.084;2022-12-13T11:40:38;98798.63;;;1.06;73.32
72802;BME280;61891;55.818;37.084;2022-12-13T11:45:52;98803.16;;;1.04;72.97
72802;BME280;61891;55.818;37.084;2022-12-13T11:50:59;98773.75;;;0.80;73.01
72802;BME280;61891;55.818;37.084;2022-12-13T11:53:38;98808.13;;;1.07;73.36
72802;BME280;61891;55.818;37.084;2022-12-13T11:58:49;98773.88;;;0.67;72.81
72802;BME280;61891;55.818;37.084;2022-12-13T12:01:56;98824.75;;;0.95;72.68
72802;BME280;61891;55.818;37.084;2022-12-13T12:04:47;98844.66;;;0.96;72.85
72802;BME280;61891;55.818;37.084;2022-12-13T12:07:34;98743.06;;;0.27;72.59
72802;BME280;61891;55.818;37.084;2022-12-13T12:12:43;98823.91;;;0.72;72.26
72802;BME280;61891;55.818;37.084;2022-12-13T12:15:17;98776.84;;;0.40;72.37
72802;BME280;61891;55.818;37.084;2022-12-13T12:17:44;98837.09;;;0.82;72.36
72802;BME280;61891;55.818;37.084;2022-12-13T12:20:15;98856.66;;;0.99;72.34
72802;BME280;61891;55.818;37.084;2022-12-13T12:23:12;98835.91;;;0.86;72.39
72802;BME280;61891;55.818;37.084;2022-12-13T12:42:49;98837.31;;;1.12;71.92
72802;BME280;61891;55.818;37.084;2022-12-13T12:52:10;98844.31;;;1.12;72.41
72802;BME280;61891;55.818;37.084;2022-12-13T12:55:06;98837.88;;;1.16;72.12
72802;BME280;61891;55.818;37.084;2022-12-13T13:00:17;98821.88;;;1.09;72.21
72802;BME280;61891;55.818;37.084;2022-12-13T13:03:08;98833.75;;;1.13;72.05
72802;BME280;61891;55.818;37.084;2022-12-13T13:05:41;98810.16;;;1.04;72.28
72802;BME280;61891;55.818;37.084;2022-12-13T13:10:57;98810.84;;;1.06;72.25
72802;BME280;61891;55.818;37.084;2022-12-13T13:16:03;98808.38;;;1.04;71.87
72802;BME280;61891;55.818;37.084;2022-12-13T13:18:50;98839.31;;;1.20;71.88
72802;BME280;61891;55.818;37.084;2022-12-13T13:26:58;98806.56;;;1.16;71.92
72802;BME280;61891;55.818;37.084;2022-12-13T13:29:43;98842.00;;;1.41;71.95
72802;BME280;61891;55.818;37.084;2022-12-13T13:34:46;98792.34;;;1.09;71.96
72802;BME280;61891;55.818;37.084;2022-12-13T13:39:59;98831.59;;;1.29;71.80
72802;BME280;61891;55.818;37.084;2022-12-13T13:42:30;98831.34;;;1.21;71.44
72802;BME280;61891;55.818;37.084;2022-12-13T13:45:00;98831.97;;;1.14;72.05
72802;BME280;61891;55.818;37.084;2022-12-13T13:47:36;98847.28;;;1.07;71.71
72802;BME280;61891;55.818;37.084;2022-12-13T14:09:30;98888.56;;;1.02;71.78
72802;BME280;61891;55.818;37.084;2022-12-13T14:21:10;98883.81;;;1.07;71.40
72802;BME280;61891;55.818;37.084;2022-12-13T14:26:58;98878.47;;;1.09;71.29
72802;BME280;61891;55.818;37.084;2022-12-13T14:29:31;98787.53;;;0.59;70.98
72802;BME280;61891;55.818;37.084;2022-12-13T14:31:59;98846.31;;;1.08;71.50
72802;BME280;61891;55.818;37.084;2022-12-13T14:34:30;98851.78;;;1.05;71.14
72802;BME280;61891;55.818;37.084;2022-12-13T14:37:18;98850.00;;;1.06;71.38
72802;BME280;61891;55.818;37.084;2022-12-13T14:39:44;98833.16;;;0.99;71.14
72802;BME280;61891;55.818;37.084;2022-12-13T14:42:25;98836.72;;;1.09;70.84
72802;BME280;61891;55.818;37.084;2022-12-13T14:44:52;98839.78;;;1.14;70.85
72802;BME280;61891;55.818;37.084;2022-12-13T14:47:18;98830.53;;;1.10;70.83
72802;BME280;61891;55.818;37.084;2022-12-13T14:49:47;98836.34;;;1.24;71.19
72802;BME280;61891;55.818;37.084;2022-12-13T14:52:23;98826.59;;;1.26;70.91
72802;BME280;61891;55.818;37.084;2022-12-13T14:54:52;98766.38;;;0.96;70.68
72802;BME280;61891;55.818;37.084;2022-12-13T14:57:21;98802.19;;;1.16;70.93
72802;BME280;61891;55.818;37.084;2022-12-13T14:59:50;98824.56;;;1.30;70.82
72802;BME280;61891;55.818;37.084;2022-12-13T15:02:19;98815.56;;;1.23;70.74
72802;BME280;61891;55.818;37.084;2022-12-13T15:04:46;98826.25;;;1.31;70.62
72802;BME280;61891;55.818;37.084;2022-12-13T15:07:20;98841.88;;;1.42;70.49
72802;BME280;61891;55.818;37.084;2022-12-13T15:09:52;98786.75;;;1.13;70.55
72802;BME280;61891;55.818;37.084;2022-12-13T15:12:21;98806.44;;;1.28;70.56
72802;BME280;61891;55.818;37.084;2022-12-13T15:14:51;98785.81;;;1.14;70.41
72802;BME280;61891;55.818;37.084;2022-12-13T15:17:35;98836.88;;;1.50;70.14
72802;BME280;61891;55.818;37.084;2022-12-13T15:20:25;98847.06;;;1.53;70.13
72802;BME280;61891;55.818;37.084;2022-12-13T15:23:03;98842.44;;;1.57;70.25
72802;BME280;61891;55.818;37.084;2022-12-13T15:25:36;98835.56;;;1.56;70.27